sensor_id;sensor_type;location;lat;lon;timestamp;temperature;humidity
8711;DHT22;4392;47.400;8.062;2022-11-20T00:00:21;9.00;99.90
8711;DHT22;4392;47.400;8.062;2022-11-20T00:02:46;8.90;99.90
8711;DHT22;4392;47.400;8.062;2022-11-20T00:05:12;8.90;99.90
8711;DHT22;4392;47.400;8.062;2022-11-20T00:07:38;8.90;99.90
8711;DHT22;4392;47.400;8.062;2022-11-20T00:10:04;8.90;99.90
8711;DHT22;4392;47.400;8.062;2022-11-20T00:12:30;8.90;99.90
8711;DHT22;4392;47.400;8.062;2022-11-20T00:14:57;8.90;99.90
8711;DHT22;4392;47.400;8.062;2022-11-20T00:17:26;8.90;99.90
8711;DHT22;4392;47.400;8.062;2022-11-20T00:19:52;8.90;99.90
8711;DHT22;4392;47.400;8.062;2022-11-20T00:22:18;8.90;99.90
8711;DHT22;4392;47.400;8.062;2022-11-20T00:24:44;8.80;99.90
8711;DHT22;4392;47.400;8.062;2022-11-20T00:27:09;8.80;99.90
8711;DHT22;4392;47.400;8.062;2022-11-20T00:29:38;8.80;99.90
8711;DHT22;4392;47.400;8.062;2022-11-20T00:32:04;8.80;99.90
8711;DHT22;4392;47.400;8.062;2022-11-20T00:34:29;8.70;99.90
8711;DHT22;4392;47.400;8.062;2022-11-20T00:36:55;8.70;99.90
8711;DHT22;4392;47.400;8.062;2022-11-20T00:39:21;8.70;99.90
8711;DHT22;4392;47.400;8.062;2022-11-20T00:41:49;8.70;99.90
8711;DHT22;4392;47.400;8.062;2022-11-20T00:44:15;8.70;99.90
8711;DHT22;4392;47.400;8.062;2022-11-20T00:46:41;8.70;99.90
8711;DHT22;4392;47.400;8.062;2022-11-20T00:49:07;8.70;99.90
8711;DHT22;4392;47.400;8.062;2022-11-20T00:51:32;8.70;99.90
8711;DHT22;4392;47.400;8.062;2022-11-20T00:54:01;8.70;99.90
8711;DHT22;4392;47.400;8.062;2022-11-20T00:56:28;8.70;99.90
8711;DHT22;4392;47.400;8.062;2022-11-20T00:58:54;8.80;99.90
8711;DHT22;4392;47.400;8.062;2022-11-20T01:01:22;8.70;99.90
8711;DHT22;4392;47.400;8.062;2022-11-20T01:04:00;8.60;99.90
8711;DHT22;4392;47.400;8.062;2022-11-20T01:06:32;8.60;99.90
8711;DHT22;4392;47.400;8.062;2022-11-20T01:09:01;8.50;99.90
8711;DHT22;4392;47.400;8.062;2022-11-20T01:11:33;8.60;99.90
8711;DHT22;4392;47.400;8.062;2022-11-20T01:14:00;8.60;99.90
8711;DHT22;4392;47.400;8.062;2022-11-20T01:16:42;8.70;99.90
8711;DHT22;4392;47.400;8.062;2022-11-20T01:19:13;8.70;99.90
8711;DHT22;4392;47.400;8.062;2022-11-20T01:21:49;8.60;99.90
8711;DHT22;4392;47.400;8.062;2022-11-20T01:24:17;8.60;99.90
8711;DHT22;4392;47.400;8.062;2022-11-20T01:26:44;8.50;99.90
8711;DHT22;4392;47.400;8.062;2022-11-20T01:29:17;8.50;99.90
8711;DHT22;4392;47.400;8.062;2022-11-20T01:31:46;8.50;99.90
8711;DHT22;4392;47.400;8.062;2022-11-20T01:34:14;8.50;99.90
8711;DHT22;4392;47.400;8.062;2022-11-20T01:36:41;8.50;99.90
8711;DHT22;4392;47.400;8.062;2022-11-20T01:39:11;8.50;99.90
8711;DHT22;4392;47.400;8.062;2022-11-20T01:41:38;8.50;99.90
8711;DHT22;4392;47.400;8.062;2022-11-20T01:47:09;8.50;99.90
8711;DHT22;4392;47.400;8.062;2022-11-20T01:49:45;8.50;99.90
8711;DHT22;4392;47.400;8.062;2022-11-20T01:52:22;8.50;99.90
8711;DHT22;4392;47.400;8.062;2022-11-20T01:54:56;8.50;99.90
8711;DHT22;4392;47.400;8.062;2022-11-20T01:57:24;8.40;99.90
8711;DHT22;4392;47.400;8.062;2022-11-20T01:59:55;8.40;99.90
8711;DHT22;4392;47.400;8.062;2022-11-20T02:02:22;8.50;99.90
8711;DHT22;4392;47.400;8.062;2022-11-20T02:04:51;8.50;99.90
8711;DHT22;4392;47.400;8.062;2022-11-20T02:07:20;8.50;99.90
8711;DHT22;4392;47.400;8.062;2022-11-20T02:09:46;8.40;99.90
8711;DHT22;4392;47.400;8.062;2022-11-20T02:12:12;8.50;99.90
8711;DHT22;4392;47.400;8.062;2022-11-20T02:14:58;8.50;99.90
8711;DHT22;4392;47.400;8.062;2022-11-20T02:17:24;8.60;99.90
8711;DHT22;4392;47.400;8.062;2022-11-20T02:19:51;8.50;99.90
8711;DHT22;4392;47.400;8.062;2022-11-20T02:22:27;8.60;99.90
8711;DHT22;4392;47.400;8.062;2022-11-20T02:24:54;8.60;99.90
8711;DHT22;4392;47.400;8.062;2022-11-20T02:27:21;8.70;99.90
8711;DHT22;4392;47.400;8.062;2022-11-20T02:29:48;8.70;99.90
8711;DHT22;4392;47.400;8.062;2022-11-20T02:32:30;8.60;99.90
8711;DHT22;4392;47.400;8.062;2022-11-20T02:34:56;8.60;99.90
8711;DHT22;4392;47.400;8.062;2022-11-20T02:37:23;8.60;99.90
8711;DHT22;4392;47.400;8.062;2022-11-20T02:39:52;8.60;99.90
8711;DHT22;4392;47.400;8.062;2022-11-20T02:42:19;8.50;99.90
8711;DHT22;4392;47.400;8.062;2022-11-20T02:44:45;8.60;99.90
8711;DHT22;4392;47.400;8.062;2022-11-20T02:47:11;8.60;99.90
8711;DHT22;4392;47.400;8.062;2022-11-20T02:49:37;8.70;99.90
8711;DHT22;4392;47.400;8.062;2022-11-20T02:52:03;8.60;99.90
8711;DHT22;4392;47.400;8.062;2022-11-20T02:54:29;8.60;99.90
8711;DHT22;4392;47.400;8.062;2022-11-20T02:56:55;8.60;99.90
8711;DHT22;4392;47.400;8.062;2022-11-20T02:59:21;8.60;99.90
8711;DHT22;4392;47.400;8.062;2022-11-20T03:01:50;8.60;99.90
8711;DHT22;4392;47.400;8.062;2022-11-20T03:04:17;8.50;99.90
8711;DHT22;4392;47.400;8.062;2022-11-20T03:06:42;8.50;99.90
8711;DHT22;4392;47.400;8.062;2022-11-20T03:09:08;8.50;99.90
8711;DHT22;4392;47.400;8.062;2022-11-20T03:11:34;8.50;99.90
8711;DHT22;4392;47.400;8.062;2022-11-20T03:14:06;8.60;99.90
8711;DHT22;4392;47.400;8.062;2022-11-20T03:16:32;8.60;99.90
8711;DHT22;4392;47.400;8.062;2022-11-20T03:18:58;8.60;99.90
8711;DHT22;4392;47.400;8.062;2022-11-20T03:21:24;8.60;99.90
8711;DHT22;4392;47.400;8.062;2022-11-20T03:23:50;8.60;99.90
8711;DHT22;4392;47.400;8.062;2022-11-20T03:26:22;8.50;99.90
8711;DHT22;4392;47.400;8.062;2022-11-20T03:28:54;8.60;99.90
8711;DHT22;4392;47.400;8.062;2022-11-20T03:31:23;8.50;99.90
8711;DHT22;4392;47.400;8.062;2022-11-20T03:33:50;8.50;99.90
8711;DHT22;4392;47.400;8.062;2022-11-20T03:36:17;8.40;99.90
8711;DHT22;4392;47.400;8.062;2022-11-20T03:38:43;8.50;99.90
8711;DHT22;4392;47.400;8.062;2022-11-20T03:41:20;8.40;99.90
8711;DHT22;4392;47.400;8.062;2022-11-20T03:43:55;8.40;99.90
8711;DHT22;4392;47.400;8.062;2022-11-20T03:46:22;8.40;99.90
8711;DHT22;4392;47.400;8.062;2022-11-20T03:48:48;8.40;99.90
8711;DHT22;4392;47.400;8.062;2022-11-20T03:53:42;8.30;99.90
8711;DHT22;4392;47.400;8.062;2022-11-20T03:56:08;8.40;99.90
8711;DHT22;4392;47.400;8.062;2022-11-20T03:58:37;8.30;99.90
8711;DHT22;4392;47.400;8.062;2022-11-20T04:01:16;8.40;99.90
8711;DHT22;4392;47.400;8.062;2022-11-20T04:03:43;8.40;99.90
8711;DHT22;4392;47.400;8.062;2022-11-20T04:08:36;8.30;99.90
8711;DHT22;4392;47.400;8.062;2022-11-20T04:11:32;8.30;99.90
8711;DHT22;4392;47.400;8.062;2022-11-20T04:14:00;8.20;99.90
8711;DHT22;4392;47.400;8.062;2022-11-20T04:16:28;8.30;99.90
8711;DHT22;4392;47.400;8.062;2022-11-20T04:18:58;8.20;99.90
8711;DHT22;4392;47.400;8.062;2022-11-20T04:21:25;8.20;99.90
8711;DHT22;4392;47.400;8.062;2022-11-20T04:23:51;8.20;99.90
8711;DHT22;4392;47.400;8.062;2022-11-20T04:26:18;8.20;99.90
8711;DHT22;4392;47.400;8.062;2022-11-20T04:28:44;8.10;99.90
8711;DHT22;4392;47.400;8.062;2022-11-20T04:31:13;8.20;99.90
8711;DHT22;4392;47.400;8.062;2022-11-20T04:33:40;8.20;99.90
8711;DHT22;4392;47.400;8.062;2022-11-20T04:36:10;8.20;99.90
8711;DHT22;4392;47.400;8.062;2022-11-20T04:38:36;8.20;99.90
8711;DHT22;4392;47.400;8.062;2022-11-20T04:41:04;8.10;99.90
8711;DHT22;4392;47.400;8.062;2022-11-20T04:43:31;8.10;99.90
8711;DHT22;4392;47.400;8.062;2022-11-20T04:45:58;8.10;99.90
8711;DHT22;4392;47.400;8.062;2022-11-20T04:48:24;8.20;99.90
8711;DHT22;4392;47.400;8.062;2022-11-20T04:50:53;8.20;99.90
8711;DHT22;4392;47.400;8.062;2022-11-20T04:53:20;8.10;99.90
8711;DHT22;4392;47.400;8.062;2022-11-20T04:55:46;8.10;99.90
8711;DHT22;4392;47.400;8.062;2022-11-20T04:58:13;8.10;99.90
8711;DHT22;4392;47.400;8.062;2022-11-20T05:00:40;8.10;99.90
8711;DHT22;4392;47.400;8.062;2022-11-20T05:03:06;8.10;99.90
8711;DHT22;4392;47.400;8.062;2022-11-20T05:05:33;8.10;99.90
8711;DHT22;4392;47.400;8.062;2022-11-20T05:07:59;8.20;99.90
8711;DHT22;4392;47.400;8.062;2022-11-20T05:10:26;8.10;99.90
8711;DHT22;4392;47.400;8.062;2022-11-20T05:12:52;8.10;99.90
8711;DHT22;4392;47.400;8.062;2022-11-20T05:15:18;8.10;99.90
8711;DHT22;4392;47.400;8.062;2022-11-20T05:17:50;8.10;99.90
8711;DHT22;4392;47.400;8.062;2022-11-20T05:20:17;8.10;99.90
8711;DHT22;4392;47.400;8.062;2022-11-20T05:22:43;8.10;99.90
8711;DHT22;4392;47.400;8.062;2022-11-20T05:25:11;8.20;99.90
8711;DHT22;4392;47.400;8.062;2022-11-20T05:27:37;8.30;99.90
8711;DHT22;4392;47.400;8.062;2022-11-20T05:30:05;8.20;99.90
8711;DHT22;4392;47.400;8.062;2022-11-20T05:32:30;8.20;99.90
8711;DHT22;4392;47.400;8.062;2022-11-20T05:34:56;8.10;99.90
8711;DHT22;4392;47.400;8.062;2022-11-20T05:37:22;8.20;99.90
8711;DHT22;4392;47.400;8.062;2022-11-20T05:39:48;8.20;99.90
8711;DHT22;4392;47.400;8.062;2022-11-20T05:42:13;8.30;99.90
8711;DHT22;4392;47.400;8.062;2022-11-20T05:45:02;8.30;99.90
8711;DHT22;4392;47.400;8.062;2022-11-20T05:47:32;8.20;99.90
8711;DHT22;4392;47.400;8.062;2022-11-20T05:49:58;8.20;99.90
8711;DHT22;4392;47.400;8.062;2022-11-20T05:52:24;8.20;99.90
8711;DHT22;4392;47.400;8.062;2022-11-20T05:54:49;8.20;99.90
8711;DHT22;4392;47.400;8.062;2022-11-20T05:57:16;8.20;99.90
8711;DHT22;4392;47.400;8.062;2022-11-20T05:59:43;8.20;99.90
8711;DHT22;4392;47.400;8.062;2022-11-20T06:02:09;8.20;99.90
8711;DHT22;4392;47.400;8.062;2022-11-20T06:04:34;8.20;99.90
8711;DHT22;4392;47.400;8.062;2022-11-20T06:07:06;8.20;99.90
8711;DHT22;4392;47.400;8.062;2022-11-20T06:09:32;8.20;99.90
8711;DHT22;4392;47.400;8.062;2022-11-20T06:12:00;8.10;99.90
8711;DHT22;4392;47.400;8.062;2022-11-20T06:14:26;8.20;99.90
8711;DHT22;4392;47.400;8.062;2022-11-20T06:16:52;8.20;99.90
8711;DHT22;4392;47.400;8.062;2022-11-20T06:19:18;8.10;99.90
8711;DHT22;4392;47.400;8.062;2022-11-20T06:21:43;8.10;99.90
8711;DHT22;4392;47.400;8.062;2022-11-20T06:24:10;8.20;99.90
8711;DHT22;4392;47.400;8.062;2022-11-20T06:26:36;8.20;99.90
8711;DHT22;4392;47.400;8.062;2022-11-20T06:29:02;8.20;99.90
8711;DHT22;4392;47.400;8.062;2022-11-20T06:31:27;8.20;99.90
8711;DHT22;4392;47.400;8.062;2022-11-20T06:33:53;8.20;99.90
8711;DHT22;4392;47.400;8.062;2022-11-20T06:36:21;8.20;99.90
8711;DHT22;4392;47.400;8.062;2022-11-20T06:38:47;8.20;99.90
8711;DHT22;4392;47.400;8.062;2022-11-20T06:41:15;8.20;99.90
8711;DHT22;4392;47.400;8.062;2022-11-20T06:43:41;8.20;99.90
8711;DHT22;4392;47.400;8.062;2022-11-20T06:46:07;8.20;99.90
8711;DHT22;4392;47.400;8.062;2022-11-20T06:48:34;8.70;99.90
8711;DHT22;4392;47.400;8.062;2022-11-20T06:50:59;10.70;99.90
8711;DHT22;4392;47.400;8.062;2022-11-20T06:53:27;11.40;99.90
8711;DHT22;4392;47.400;8.062;2022-11-20T06:55:55;11.90;99.90
8711;DHT22;4392;47.400;8.062;2022-11-20T06:58:22;12.10;99.90
8711;DHT22;4392;47.400;8.062;2022-11-20T07:00:47;12.20;99.90
8711;DHT22;4392;47.400;8.062;2022-11-20T07:03:13;12.40;99.90
8711;DHT22;4392;47.400;8.062;2022-11-20T07:05:39;12.40;99.90
8711;DHT22;4392;47.400;8.062;2022-11-20T07:08:05;12.50;99.90
8711;DHT22;4392;47.400;8.062;2022-11-20T07:10:31;12.50;99.90
8711;DHT22;4392;47.400;8.062;2022-11-20T07:12:57;12.50;99.90
8711;DHT22;4392;47.400;8.062;2022-11-20T07:15:24;12.60;99.90
8711;DHT22;4392;47.400;8.062;2022-11-20T07:17:51;12.70;99.90
8711;DHT22;4392;47.400;8.062;2022-11-20T07:20:17;12.00;95.10
8711;DHT22;4392;47.400;8.062;2022-11-20T07:22:43;11.00;95.00
8711;DHT22;4392;47.400;8.062;2022-11-20T07:25:09;10.40;96.30
8711;DHT22;4392;47.400;8.062;2022-11-20T07:27:35;10.00;97.30
8711;DHT22;4392;47.400;8.062;2022-11-20T07:30:03;9.70;98.80
8711;DHT22;4392;47.400;8.062;2022-11-20T07:32:29;9.70;99.70
8711;DHT22;4392;47.400;8.062;2022-11-20T07:34:55;9.40;99.90
8711;DHT22;4392;47.400;8.062;2022-11-20T07:37:21;9.30;99.90
8711;DHT22;4392;47.400;8.062;2022-11-20T07:39:46;9.20;99.90
8711;DHT22;4392;47.400;8.062;2022-11-20T07:42:12;9.10;99.90
8711;DHT22;4392;47.400;8.062;2022-11-20T07:44:38;9.10;99.90
8711;DHT22;4392;47.400;8.062;2022-11-20T07:47:04;9.00;99.90
8711;DHT22;4392;47.400;8.062;2022-11-20T07:49:30;9.00;99.90
8711;DHT22;4392;47.400;8.062;2022-11-20T07:51:56;8.90;99.90
8711;DHT22;4392;47.400;8.062;2022-11-20T07:54:22;8.90;99.90
8711;DHT22;4392;47.400;8.062;2022-11-20T07:56:54;9.40;99.90
8711;DHT22;4392;47.400;8.062;2022-11-20T07:59:20;9.40;99.90
8711;DHT22;4392;47.400;8.062;2022-11-20T08:01:46;9.40;99.90
8711;DHT22;4392;47.400;8.062;2022-11-20T08:04:11;9.30;99.90
8711;DHT22;4392;47.400;8.062;2022-11-20T08:06:37;9.50;99.90
8711;DHT22;4392;47.400;8.062;2022-11-20T08:09:03;9.60;99.90
8711;DHT22;4392;47.400;8.062;2022-11-20T08:11:29;9.40;99.90
8711;DHT22;4392;47.400;8.062;2022-11-20T08:14:13;9.30;99.90
8711;DHT22;4392;47.400;8.062;2022-11-20T08:16:41;9.20;99.90
8711;DHT22;4392;47.400;8.062;2022-11-20T08:19:08;9.10;99.90
8711;DHT22;4392;47.400;8.062;2022-11-20T08:21:36;9.10;99.90
8711;DHT22;4392;47.400;8.062;2022-11-20T08:24:01;9.10;99.90
8711;DHT22;4392;47.400;8.062;2022-11-20T08:26:29;9.40;99.90
8711;DHT22;4392;47.400;8.062;2022-11-20T08:28:56;9.50;99.90
8711;DHT22;4392;47.400;8.062;2022-11-20T08:31:24;9.60;99.90
8711;DHT22;4392;47.400;8.062;2022-11-20T08:33:50;9.80;99.90
8711;DHT22;4392;47.400;8.062;2022-11-20T08:36:17;10.10;99.90
8711;DHT22;4392;47.400;8.062;2022-11-20T08:38:47;9.90;99.90
8711;DHT22;4392;47.400;8.062;2022-11-20T08:41:14;9.60;99.90
8711;DHT22;4392;47.400;8.062;2022-11-20T08:44:01;9.40;99.90
8711;DHT22;4392;47.400;8.062;2022-11-20T08:46:32;9.30;99.90
8711;DHT22;4392;47.400;8.062;2022-11-20T08:49:05;9.30;99.90
8711;DHT22;4392;47.400;8.062;2022-11-20T08:51:31;9.30;99.90
8711;DHT22;4392;47.400;8.062;2022-11-20T08:53:57;9.10;99.90
8711;DHT22;4392;47.400;8.062;2022-11-20T08:56:23;9.20;99.90
8711;DHT22;4392;47.400;8.062;2022-11-20T08:59:01;9.20;99.90
8711;DHT22;4392;47.400;8.062;2022-11-20T09:01:28;9.10;99.90
8711;DHT22;4392;47.400;8.062;2022-11-20T09:03:58;9.20;99.90
8711;DHT22;4392;47.400;8.062;2022-11-20T09:06:25;9.20;99.90
8711;DHT22;4392;47.400;8.062;2022-11-20T09:08:54;9.30;99.90
8711;DHT22;4392;47.400;8.062;2022-11-20T09:11:21;9.30;99.90
8711;DHT22;4392;47.400;8.062;2022-11-20T09:13:46;9.70;99.90
8711;DHT22;4392;47.400;8.062;2022-11-20T09:16:12;9.60;99.90
8711;DHT22;4392;47.400;8.062;2022-11-20T09:18:38;9.50;99.90
8711;DHT22;4392;47.400;8.062;2022-11-20T09:21:12;9.50;99.90
8711;DHT22;4392;47.400;8.062;2022-11-20T09:23:38;9.50;99.90
8711;DHT22;4392;47.400;8.062;2022-11-20T09:26:09;9.40;99.90
8711;DHT22;4392;47.400;8.062;2022-11-20T09:28:35;9.60;99.90
8711;DHT22;4392;47.400;8.062;2022-11-20T09:31:05;10.10;99.90
8711;DHT22;4392;47.400;8.062;2022-11-20T09:33:31;10.10;99.90
8711;DHT22;4392;47.400;8.062;2022-11-20T09:35:57;10.00;99.90
8711;DHT22;4392;47.400;8.062;2022-11-20T09:38:30;10.10;99.90
8711;DHT22;4392;47.400;8.062;2022-11-20T09:40:58;10.20;99.90
8711;DHT22;4392;47.400;8.062;2022-11-20T09:46:44;10.00;99.90
8711;DHT22;4392;47.400;8.062;2022-11-20T09:49:38;10.10;99.90
8711;DHT22;4392;47.400;8.062;2022-11-20T09:55:12;10.20;99.90
8711;DHT22;4392;47.400;8.062;2022-11-20T09:57:48;11.50;99.90
8711;DHT22;4392;47.400;8.062;2022-11-20T10:00:15;11.00;98.20
8711;DHT22;4392;47.400;8.062;2022-11-20T10:05:45;10.20;97.90
8711;DHT22;4392;47.400;8.062;2022-11-20T10:08:16;10.00;98.30
8711;DHT22;4392;47.400;8.062;2022-11-20T10:11:15;10.10;99.90
8711;DHT22;4392;47.400;8.062;2022-11-20T10:25:20;10.20;98.50
8711;DHT22;4392;47.400;8.062;2022-11-20T10:30:17;10.40;98.20
8711;DHT22;4392;47.400;8.062;2022-11-20T10:32:47;10.50;97.50
8711;DHT22;4392;47.400;8.062;2022-11-20T10:35:15;10.40;97.30
8711;DHT22;4392;47.400;8.062;2022-11-20T10:37:56;10.50;97.20
8711;DHT22;4392;47.400;8.062;2022-11-20T10:43:15;10.20;97.80
8711;DHT22;4392;47.400;8.062;2022-11-20T10:45:53;10.30;97.70
8711;DHT22;4392;47.400;8.062;2022-11-20T10:48:23;11.10;99.90
8711;DHT22;4392;47.400;8.062;2022-11-20T10:56:38;10.40;96.00
8711;DHT22;4392;47.400;8.062;2022-11-20T11:02:19;10.30;96.00
8711;DHT22;4392;47.400;8.062;2022-11-20T11:04:55;10.30;95.90
8711;DHT22;4392;47.400;8.062;2022-11-20T11:07:28;10.30;94.60
8711;DHT22;4392;47.400;8.062;2022-11-20T11:09:56;10.20;93.40
8711;DHT22;4392;47.400;8.062;2022-11-20T11:12:32;10.20;92.90
8711;DHT22;4392;47.400;8.062;2022-11-20T11:15:00;10.20;92.40
8711;DHT22;4392;47.400;8.062;2022-11-20T11:17:33;10.10;91.80
8711;DHT22;4392;47.400;8.062;2022-11-20T11:20:02;10.20;92.00
8711;DHT22;4392;47.400;8.062;2022-11-20T11:22:42;10.20;92.70
8711;DHT22;4392;47.400;8.062;2022-11-20T11:25:34;10.20;92.80
8711;DHT22;4392;47.400;8.062;2022-11-20T11:28:21;10.20;92.50
8711;DHT22;4392;47.400;8.062;2022-11-20T11:30:47;10.20;91.90
8711;DHT22;4392;47.400;8.062;2022-11-20T11:33:21;10.30;92.10
8711;DHT22;4392;47.400;8.062;2022-11-20T11:35:56;10.30;92.00
8711;DHT22;4392;47.400;8.062;2022-11-20T11:38:41;10.30;91.60
8711;DHT22;4392;47.400;8.062;2022-11-20T11:41:16;10.20;91.60
8711;DHT22;4392;47.400;8.062;2022-11-20T11:43:52;11.40;99.90
8711;DHT22;4392;47.400;8.062;2022-11-20T11:46:49;11.30;92.80
8711;DHT22;4392;47.400;8.062;2022-11-20T11:49:21;10.90;90.60
8711;DHT22;4392;47.400;8.062;2022-11-20T11:57:26;10.50;87.90
8711;DHT22;4392;47.400;8.062;2022-11-20T12:13:15;11.40;99.90
8711;DHT22;4392;47.400;8.062;2022-11-20T12:15:51;11.50;99.90
8711;DHT22;4392;47.400;8.062;2022-11-20T12:18:23;11.60;99.30
8711;DHT22;4392;47.400;8.062;2022-11-20T12:24:25;11.80;98.00
8711;DHT22;4392;47.400;8.062;2022-11-20T12:32:30;13.10;95.20
8711;DHT22;4392;47.400;8.062;2022-11-20T12:48:07;12.70;90.50
8711;DHT22;4392;47.400;8.062;2022-11-20T12:53:52;12.60;90.60
8711;DHT22;4392;47.400;8.062;2022-11-20T12:56:33;12.70;89.40
8711;DHT22;4392;47.400;8.062;2022-11-20T13:02:37;12.40;81.10
8711;DHT22;4392;47.400;8.062;2022-11-20T13:07:51;13.00;88.50
8711;DHT22;4392;47.400;8.062;2022-11-20T13:10:39;13.50;86.40
8711;DHT22;4392;47.400;8.062;2022-11-20T13:18:41;12.20;75.00
8711;DHT22;4392;47.400;8.062;2022-11-20T13:21:20;11.90;75.80
8711;DHT22;4392;47.400;8.062;2022-11-20T13:23:49;11.80;75.50
8711;DHT22;4392;47.400;8.062;2022-11-20T13:26:23;11.70;75.10
8711;DHT22;4392;47.400;8.062;2022-11-20T13:29:16;11.70;74.40
8711;DHT22;4392;47.400;8.062;2022-11-20T13:31:47;11.80;74.40
8711;DHT22;4392;47.400;8.062;2022-11-20T13:34:27;11.90;75.70
8711;DHT22;4392;47.400;8.062;2022-11-20T13:36:59;12.00;74.90
8711;DHT22;4392;47.400;8.062;2022-11-20T13:39:46;12.00;75.00
8711;DHT22;4392;47.400;8.062;2022-11-20T13:42:27;11.90;75.80
8711;DHT22;4392;47.400;8.062;2022-11-20T13:44:55;12.00;75.10
8711;DHT22;4392;47.400;8.062;2022-11-20T13:47:26;12.00;74.40
8711;DHT22;4392;47.400;8.062;2022-11-20T13:49:56;12.10;75.30
8711;DHT22;4392;47.400;8.062;2022-11-20T13:55:35;12.80;86.20
8711;DHT22;4392;47.400;8.062;2022-11-20T14:01:26;13.40;76.50
8711;DHT22;4392;47.400;8.062;2022-11-20T14:03:56;13.20;73.30
8711;DHT22;4392;47.400;8.062;2022-11-20T14:06:41;13.10;74.80
8711;DHT22;4392;47.400;8.062;2022-11-20T14:09:23;13.00;70.10
8711;DHT22;4392;47.400;8.062;2022-11-20T14:11:50;13.00;74.20
8711;DHT22;4392;47.400;8.062;2022-11-20T14:14:17;13.00;71.70
8711;DHT22;4392;47.400;8.062;2022-11-20T14:16:50;13.00;71.20
8711;DHT22;4392;47.400;8.062;2022-11-20T14:19:28;12.70;70.20
8711;DHT22;4392;47.400;8.062;2022-11-20T14:25:20;12.70;69.50
8711;DHT22;4392;47.400;8.062;2022-11-20T14:27:54;12.70;67.00
8711;DHT22;4392;47.400;8.062;2022-11-20T14:30:48;12.80;66.60
8711;DHT22;4392;47.400;8.062;2022-11-20T14:33:14;12.80;66.30
8711;DHT22;4392;47.400;8.062;2022-11-20T14:35:47;13.00;71.50
8711;DHT22;4392;47.400;8.062;2022-11-20T14:38:27;12.90;66.90
8711;DHT22;4392;47.400;8.062;2022-11-20T14:43:56;12.60;67.40
8711;DHT22;4392;47.400;8.062;2022-11-20T14:47:08;12.90;69.40
8711;DHT22;4392;47.400;8.062;2022-11-20T14:49:37;12.70;65.80
8711;DHT22;4392;47.400;8.062;2022-11-20T14:52:27;12.60;66.80
8711;DHT22;4392;47.400;8.062;2022-11-20T14:54:54;12.30;66.90
8711;DHT22;4392;47.400;8.062;2022-11-20T14:57:31;12.20;67.60
8711;DHT22;4392;47.400;8.062;2022-11-20T15:02:42;12.30;68.20
8711;DHT22;4392;47.400;8.062;2022-11-20T15:05:09;13.20;80.70
8711;DHT22;4392;47.400;8.062;2022-11-20T15:07:41;13.10;72.50
8711;DHT22;4392;47.400;8.062;2022-11-20T15:12:52;12.60;70.90
8711;DHT22;4392;47.400;8.062;2022-11-20T15:15:49;12.40;72.10
8711;DHT22;4392;47.400;8.062;2022-11-20T15:18:20;12.20;73.70
8711;DHT22;4392;47.400;8.062;2022-11-20T15:20:47;12.10;75.20
8711;DHT22;4392;47.400;8.062;2022-11-20T15:23:17;12.10;75.90
8711;DHT22;4392;47.400;8.062;2022-11-20T15:25:47;11.90;76.00
8711;DHT22;4392;47.400;8.062;2022-11-20T15:28:21;11.80;76.80
8711;DHT22;4392;47.400;8.062;2022-11-20T15:30:53;11.70;77.30
8711;DHT22;4392;47.400;8.062;2022-11-20T15:33:21;11.70;76.90
8711;DHT22;4392;47.400;8.062;2022-11-20T15:35:47;11.70;77.20
8711;DHT22;4392;47.400;8.062;2022-11-20T15:38:20;11.60;78.30
8711;DHT22;4392;47.400;8.062;2022-11-20T15:40:49;11.60;79.10
8711;DHT22;4392;47.400;8.062;2022-11-20T15:43:15;11.60;79.40
8711;DHT22;4392;47.400;8.062;2022-11-20T15:45:53;11.60;78.80
8711;DHT22;4392;47.400;8.062;2022-11-20T15:48:26;11.40;79.40
8711;DHT22;4392;47.400;8.062;2022-11-20T15:53:44;11.40;78.70
8711;DHT22;4392;47.400;8.062;2022-11-20T15:56:50;11.30;79.40
8711;DHT22;4392;47.400;8.062;2022-11-20T15:59:37;11.30;78.80
8711;DHT22;4392;47.400;8.062;2022-11-20T16:08:25;11.00;81.60
8711;DHT22;4392;47.400;8.062;2022-11-20T16:14:10;10.90;82.20
8711;DHT22;4392;47.400;8.062;2022-11-20T16:16:54;10.90;83.40
8711;DHT22;4392;47.400;8.062;2022-11-20T16:19:20;10.90;84.20
8711;DHT22;4392;47.400;8.062;2022-11-20T16:21:49;10.80;84.70
8711;DHT22;4392;47.400;8.062;2022-11-20T16:24:35;10.80;87.10
8711;DHT22;4392;47.400;8.062;2022-11-20T16:27:21;10.80;84.70
8711;DHT22;4392;47.400;8.062;2022-11-20T16:30:09;10.80;83.90
8711;DHT22;4392;47.400;8.062;2022-11-20T16:32:53;10.70;83.20
8711;DHT22;4392;47.400;8.062;2022-11-20T16:35:45;10.60;82.20
8711;DHT22;4392;47.400;8.062;2022-11-20T16:45:09;10.50;83.40
8711;DHT22;4392;47.400;8.062;2022-11-20T16:48:13;10.50;84.00
8711;DHT22;4392;47.400;8.062;2022-11-20T16:57:21;10.60;86.90
8711;DHT22;4392;47.400;8.062;2022-11-20T17:03:28;11.40;85.90
8711;DHT22;4392;47.400;8.062;2022-11-20T17:05:53;11.10;83.70
8711;DHT22;4392;47.400;8.062;2022-11-20T17:08:23;11.00;83.60
8711;DHT22;4392;47.400;8.062;2022-11-20T17:11:03;11.00;90.30
8711;DHT22;4392;47.400;8.062;2022-11-20T17:13:35;11.00;84.10
8711;DHT22;4392;47.400;8.062;2022-11-20T17:16:35;11.00;84.00
8711;DHT22;4392;47.400;8.062;2022-11-20T17:19:29;11.10;89.20
8711;DHT22;4392;47.400;8.062;2022-11-20T17:22:25;12.40;94.80
8711;DHT22;4392;47.400;8.062;2022-11-20T17:25:07;12.70;92.90
8711;DHT22;4392;47.400;8.062;2022-11-20T17:27:52;12.70;92.10
8711;DHT22;4392;47.400;8.062;2022-11-20T17:30:40;12.90;91.80
8711;DHT22;4392;47.400;8.062;2022-11-20T17:52:43;10.80;86.90
8711;DHT22;4392;47.400;8.062;2022-11-20T17:55:09;10.80;88.90
8711;DHT22;4392;47.400;8.062;2022-11-20T17:57:35;10.80;87.70
8711;DHT22;4392;47.400;8.062;2022-11-20T18:00:26;10.70;85.80
8711;DHT22;4392;47.400;8.062;2022-11-20T18:03:16;10.70;85.50
8711;DHT22;4392;47.400;8.062;2022-11-20T18:05:48;10.60;87.20
8711;DHT22;4392;47.400;8.062;2022-11-20T18:08:29;10.60;87.70
8711;DHT22;4392;47.400;8.062;2022-11-20T18:11:24;11.20;94.60
8711;DHT22;4392;47.400;8.062;2022-11-20T18:14:00;12.50;93.20
8711;DHT22;4392;47.400;8.062;2022-11-20T18:33:24;10.90;83.40
8711;DHT22;4392;47.400;8.062;2022-11-20T18:36:33;10.70;84.30
8711;DHT22;4392;47.400;8.062;2022-11-20T18:39:23;10.50;85.50
8711;DHT22;4392;47.400;8.062;2022-11-20T18:42:16;10.50;86.30
8711;DHT22;4392;47.400;8.062;2022-11-20T18:45:01;10.50;86.70
8711;DHT22;4392;47.400;8.062;2022-11-20T18:47:31;10.50;86.80
8711;DHT22;4392;47.400;8.062;2022-11-20T18:50:04;10.50;87.00
8711;DHT22;4392;47.400;8.062;2022-11-20T18:52:39;10.40;85.00
8711;DHT22;4392;47.400;8.062;2022-11-20T18:55:19;10.40;84.40
8711;DHT22;4392;47.400;8.062;2022-11-20T18:57:50;10.20;84.50
8711;DHT22;4392;47.400;8.062;2022-11-20T19:00:19;9.90;87.50
8711;DHT22;4392;47.400;8.062;2022-11-20T19:03:02;10.00;85.80
8711;DHT22;4392;47.400;8.062;2022-11-20T19:05:35;10.00;86.80
8711;DHT22;4392;47.400;8.062;2022-11-20T19:08:16;9.90;90.00
8711;DHT22;4392;47.400;8.062;2022-11-20T19:11:28;9.70;90.50
8711;DHT22;4392;47.400;8.062;2022-11-20T19:16:55;9.60;90.20
8711;DHT22;4392;47.400;8.062;2022-11-20T19:19:22;9.70;90.60
8711;DHT22;4392;47.400;8.062;2022-11-20T19:21:51;9.70;91.00
8711;DHT22;4392;47.400;8.062;2022-11-20T19:24:50;9.80;91.30
8711;DHT22;4392;47.400;8.062;2022-11-20T19:27:50;9.70;91.80
8711;DHT22;4392;47.400;8.062;2022-11-20T19:30:28;9.70;92.20
8711;DHT22;4392;47.400;8.062;2022-11-20T19:32:57;9.70;92.60
8711;DHT22;4392;47.400;8.062;2022-11-20T19:35:23;9.50;93.40
8711;DHT22;4392;47.400;8.062;2022-11-20T19:37:50;9.10;93.10
8711;DHT22;4392;47.400;8.062;2022-11-20T19:40:16;9.10;94.20
8711;DHT22;4392;47.400;8.062;2022-11-20T19:42:45;9.10;94.90
8711;DHT22;4392;47.400;8.062;2022-11-20T19:45:11;9.00;95.60